Time;durP1;ratioP1;P1;durP2;ratioP2;P2;SDS_P1;SDS_P2;PMS_P1;PMS_P2;Temp;Humidity;BMP_temperature;BMP_pressure;BME280_temperature;BME280_humidity;BME280_pressure;Samples;Min_cycle;Max_cycle;Signal;HPM_P1;HPM_P2
2021/08/22 00:00:39;;;;;;;13.35;11.30;;;18.00;99.90;;;;;;5093611;28;20020;-68
2021/08/22 00:03:04;;;;;;;12.27;9.68;;;17.90;99.90;;;;;;5093713;28;20136;-68
2021/08/22 00:05:30;;;;;;;11.85;10.27;;;17.90;99.90;;;;;;5094146;28;20415;-68
2021/08/22 00:07:56;;;;;;;10.23;9.23;;;17.90;99.90;;;;;;5093350;28;20048;-68
2021/08/22 00:10:21;;;;;;;12.63;10.25;;;17.90;99.90;;;;;;5092931;28;20400;-69
2021/08/22 00:12:47;;;;;;;13.05;11.07;;;17.90;99.90;;;;;;5094026;28;20024;-68
2021/08/22 00:15:13;;;;;;;15.85;11.57;;;18.00;99.90;;;;;;5092918;28;20398;-68
2021/08/22 00:17:39;;;;;;;13.27;11.52;;;17.90;99.90;;;;;;5093989;28;20107;-68
2021/08/22 00:20:05;;;;;;;15.18;12.70;;;17.90;99.90;;;;;;5094042;28;20063;-68
2021/08/22 00:22:31;;;;;;;16.02;12.80;;;17.80;99.90;;;;;;5094005;28;20101;-68
2021/08/22 00:24:56;;;;;;;17.75;12.80;;;17.80;99.90;;;;;;5093934;28;20105;-68
2021/08/22 00:27:22;;;;;;;19.42;13.63;;;17.70;99.90;;;;;;5093872;28;20024;-68
2021/08/22 00:29:47;;;;;;;15.60;13.18;;;17.80;99.90;;;;;;5093346;28;20024;-68
2021/08/22 00:32:13;;;;;;;17.65;13.23;;;17.70;99.90;;;;;;5093878;28;20500;-68
2021/08/22 00:34:38;;;;;;;22.60;14.05;;;17.70;99.90;;;;;;5093840;28;20369;-68
2021/08/22 00:37:05;;;;;;;21.08;14.88;;;17.70;99.90;;;;;;5093559;28;20107;-68
2021/08/22 00:39:30;;;;;;;19.20;15.50;;;17.60;99.90;;;;;;5093842;28;20020;-68
2021/08/22 00:41:56;;;;;;;19.02;16.40;;;17.60;99.90;;;;;;5093802;28;20031;-68
2021/08/22 00:44:23;;;;;;;19.48;15.85;;;17.60;99.90;;;;;;5093830;28;20030;-68
2021/08/22 00:46:50;;;;;;;25.08;18.35;;;17.50;99.90;;;;;;5093671;28;20454;-68
2021/08/22 00:49:15;;;;;;;18.63;16.45;;;17.40;99.90;;;;;;5093743;28;20059;-68
2021/08/22 00:51:42;;;;;;;22.92;17.30;;;17.40;99.90;;;;;;5092276;28;20031;-68
2021/08/22 00:54:08;;;;;;;22.38;17.95;;;17.40;99.90;;;;;;5093407;28;20099;-68
2021/08/22 00:56:34;;;;;;;21.95;17.75;;;17.40;99.90;;;;;;5075839;28;20385;-68
2021/08/22 00:59:07;;;;;;;22.83;17.90;;;17.40;99.90;;;;;;5093659;28;20028;-68
2021/08/22 01:01:33;;;;;;;26.25;18.13;;;17.40;99.90;;;;;;5093659;28;20032;-68
2021/08/22 01:04:07;;;;;;;23.75;18.75;;;17.40;99.90;;;;;;5093605;28;20032;-68
2021/08/22 01:07:05;;;;;;;24.30;18.83;;;17.40;99.90;;;;;;5092810;28;20415;-68
2021/08/22 01:09:39;;;;;;;23.77;19.27;;;17.40;99.90;;;;;;5092555;28;20081;-68
2021/08/22 01:12:11;;;;;;;25.90;20.33;;;17.30;99.90;;;;;;5093504;28;20024;-68
2021/08/22 01:14:47;;;;;;;28.48;20.63;;;17.30;99.90;;;;;;5095201;28;20361;-68
2021/08/22 01:17:16;;;;;;;24.48;20.60;;;17.30;99.90;;;;;;5097235;28;20522;-68
2021/08/22 01:20:05;;;;;;;29.58;22.20;;;17.30;99.90;;;;;;5097132;28;20422;-68
2021/08/22 01:22:32;;;;;;;27.45;21.20;;;17.30;99.90;;;;;;5095495;28;20085;-68
2021/08/22 01:25:01;;;;;;;25.48;20.48;;;17.40;99.90;;;;;;5095289;28;20028;-68
2021/08/22 01:27:28;;;;;;;28.52;20.90;;;17.30;99.90;;;;;;5096615;28;20020;-68
2021/08/22 01:30:14;;;;;;;26.17;21.40;;;17.30;99.90;;;;;;5096676;28;20480;-68
2021/08/22 01:32:45;;;;;;;25.63;21.15;;;17.30;99.90;;;;;;5096824;28;20042;-69
2021/08/22 01:35:17;;;;;;;26.63;19.75;;;17.30;99.90;;;;;;5096564;28;20016;-68
2021/08/22 01:37:44;;;;;;;25.75;21.27;;;17.30;99.90;;;;;;5096232;28;20024;-68
2021/08/22 01:40:11;;;;;;;23.67;21.02;;;17.30;99.90;;;;;;5096727;28;20111;-68
2021/08/22 01:42:40;;;;;;;26.38;21.15;;;17.20;99.90;;;;;;5096131;28;20066;-68
2021/08/22 01:45:08;;;;;;;23.05;19.95;;;17.20;99.90;;;;;;5096074;28;20035;-68
2021/08/22 01:47:35;;;;;;;24.58;20.27;;;17.20;99.90;;;;;;5094732;28;20124;-68
2021/08/22 01:50:02;;;;;;;23.98;18.67;;;17.30;99.90;;;;;;5096810;28;20039;-68
2021/08/22 01:52:28;;;;;;;28.67;21.08;;;17.20;99.90;;;;;;5096489;28;20020;-68
2021/08/22 01:54:53;;;;;;;25.17;21.48;;;17.20;99.90;;;;;;5096187;28;20012;-68
2021/08/22 01:57:20;;;;;;;21.90;18.67;;;17.20;99.90;;;;;;5094656;28;20020;-68
2021/08/22 01:59:45;;;;;;;27.67;21.70;;;17.20;99.90;;;;;;5096319;28;20119;-68
2021/08/22 02:02:11;;;;;;;26.80;21.23;;;17.30;99.90;;;;;;5095761;28;20149;-68
2021/08/22 02:04:46;;;;;;;32.55;23.25;;;17.30;99.90;;;;;;5096220;28;20032;-68
2021/08/22 02:07:16;;;;;;;23.95;20.17;;;17.30;99.90;;;;;;5095635;28;20094;-69
2021/08/22 02:10:04;;;;;;;26.85;21.88;;;17.20;99.90;;;;;;5094695;28;20445;-68
2021/08/22 02:12:30;;;;;;;27.00;20.90;;;17.30;99.90;;;;;;5096121;28;20042;-68
2021/08/22 02:15:19;;;;;;;27.40;22.52;;;17.30;99.90;;;;;;5094921;28;20081;-68
2021/08/22 02:17:52;;;;;;;27.42;22.52;;;17.40;99.90;;;;;;5095919;28;20454;-68
2021/08/22 02:20:18;;;;;;;29.73;23.58;;;17.50;99.90;;;;;;5095994;28;20029;-68
2021/08/22 02:22:46;;;;;;;31.20;24.10;;;17.60;99.90;;;;;;5077566;28;20474;-68
2021/08/22 02:25:13;;;;;;;28.88;20.50;;;17.70;99.90;;;;;;5095328;28;20024;-68
2021/08/22 02:27:39;;;;;;;24.30;20.15;;;17.80;99.90;;;;;;5095474;28;20024;-68
2021/08/22 02:30:07;;;;;;;25.05;20.58;;;17.80;99.90;;;;;;5077605;28;20470;-68
2021/08/22 02:32:32;;;;;;;22.77;18.83;;;17.80;99.90;;;;;;5094712;28;20024;-68
2021/08/22 02:34:58;;;;;;;25.00;19.42;;;17.80;99.90;;;;;;5093938;28;20085;-68
2021/08/22 02:37:23;;;;;;;18.17;16.20;;;17.90;99.90;;;;;;5094419;28;20037;-68
2021/08/22 02:39:49;;;;;;;20.60;15.98;;;17.90;99.90;;;;;;5094639;28;20020;-68
2021/08/22 02:42:16;;;;;;;15.55;13.80;;;17.90;99.90;;;;;;5095532;28;20488;-68
2021/08/22 02:44:43;;;;;;;14.82;13.05;;;17.90;99.90;;;;;;5094973;28;20108;-68
2021/08/22 02:47:09;;;;;;;15.30;12.73;;;17.80;99.90;;;;;;5095353;28;20062;-68
2021/08/22 02:49:34;;;;;;;14.55;10.75;;;17.80;99.90;;;;;;5095678;28;20370;-68
2021/08/22 02:52:00;;;;;;;13.05;11.27;;;17.80;99.90;;;;;;5095323;28;20020;-68
2021/08/22 02:54:25;;;;;;;12.93;10.93;;;17.80;99.90;;;;;;5093821;28;20406;-68
2021/08/22 02:56:51;;;;;;;14.77;10.90;;;17.80;99.90;;;;;;5094994;28;20032;-68
2021/08/22 02:59:16;;;;;;;13.60;11.20;;;17.80;99.90;;;;;;5094954;28;20487;-68
2021/08/22 03:01:42;;;;;;;12.13;10.25;;;17.80;99.90;;;;;;5095147;28;20024;-68
2021/08/22 03:04:07;;;;;;;12.55;10.90;;;17.80;99.90;;;;;;5094839;28;20024;-69
2021/08/22 03:06:33;;;;;;;15.93;11.10;;;17.80;99.90;;;;;;5093297;28;20408;-69
2021/08/22 03:09:00;;;;;;;12.50;10.93;;;17.80;99.90;;;;;;5094432;28;20028;-68
2021/08/22 03:11:25;;;;;;;14.15;11.27;;;17.80;99.90;;;;;;5093318;28;20056;-69
2021/08/22 03:13:51;;;;;;;14.20;11.10;;;17.70;99.90;;;;;;5094989;28;20070;-68
2021/08/22 03:16:16;;;;;;;14.65;11.52;;;17.70;99.90;;;;;;5094917;28;20020;-69
2021/08/22 03:18:42;;;;;;;12.27;10.98;;;17.70;99.90;;;;;;5094569;28;20434;-69
2021/08/22 03:21:08;;;;;;;11.95;10.43;;;17.70;99.90;;;;;;5093774;28;20030;-69
2021/08/22 03:23:33;;;;;;;10.70;9.57;;;17.60;99.90;;;;;;5094741;28;20055;-69
2021/08/22 03:25:59;;;;;;;12.93;10.25;;;17.50;99.90;;;;;;5094455;28;20034;-68
2021/08/22 03:28:26;;;;;;;10.73;9.15;;;17.50;99.90;;;;;;5094602;28;20027;-68
2021/08/22 03:30:53;;;;;;;13.15;10.75;;;17.50;99.90;;;;;;5094658;28;20024;-69
2021/08/22 03:33:19;;;;;;;13.25;11.25;;;17.40;99.90;;;;;;5094593;28;20040;-69
2021/08/22 03:35:46;;;;;;;16.58;10.73;;;17.40;99.90;;;;;;5094599;28;20119;-69
2021/08/22 03:38:11;;;;;;;13.43;11.50;;;17.40;99.90;;;;;;5094162;28;20067;-69
2021/08/22 03:40:37;;;;;;;14.00;11.15;;;17.40;99.90;;;;;;5094484;28;20483;-69
2021/08/22 03:43:03;;;;;;;11.60;10.23;;;17.40;99.90;;;;;;5092975;28;20032;-68
2021/08/22 03:45:28;;;;;;;13.32;10.35;;;17.40;99.90;;;;;;5094358;28;20039;-69
2021/08/22 03:47:54;;;;;;;14.07;9.60;;;17.40;99.90;;;;;;5093008;28;20020;-68
2021/08/22 03:50:19;;;;;;;11.25;8.50;;;17.40;99.90;;;;;;5094053;28;20028;-69
2021/08/22 03:52:48;;;;;;;10.77;9.07;;;17.40;99.90;;;;;;5094342;28;20056;-68
2021/08/22 03:55:14;;;;;;;10.90;8.00;;;17.40;99.90;;;;;;5094032;28;20024;-69
2021/08/22 03:57:40;;;;;;;9.77;7.32;;;17.40;99.90;;;;;;5094255;28;20024;-68
2021/08/22 04:00:06;;;;;;;9.77;7.63;;;17.40;99.90;;;;;;5093937;28;20107;-68
2021/08/22 04:02:32;;;;;;;10.68;8.30;;;17.40;99.90;;;;;;5075645;28;20031;-69
2021/08/22 04:05:00;;;;;;;9.32;7.70;;;17.30;99.90;;;;;;5092701;28;20038;-69
2021/08/22 04:07:25;;;;;;;9.13;7.10;;;17.30;99.90;;;;;;5092234;28;20051;-69
2021/08/22 04:09:51;;;;;;;8.18;6.65;;;17.30;99.90;;;;;;5093562;28;20024;-68
2021/08/22 04:12:16;;;;;;;8.55;7.20;;;17.30;99.90;;;;;;5094097;28;20373;-68
2021/08/22 04:14:42;;;;;;;8.75;6.78;;;17.30;99.90;;;;;;5094050;28;20017;-69
2021/08/22 04:17:07;;;;;;;8.55;6.72;;;17.20;99.90;;;;;;5093759;28;20042;-69
2021/08/22 04:19:33;;;;;;;10.70;7.50;;;17.20;99.90;;;;;;5093492;28;20032;-69
2021/08/22 04:21:59;;;;;;;11.30;7.63;;;17.20;99.90;;;;;;5092812;28;20028;-68
2021/08/22 04:24:24;;;;;;;12.73;7.43;;;17.20;99.90;;;;;;5093729;28;20021;-69
2021/08/22 04:26:50;;;;;;;8.85;7.30;;;17.10;99.90;;;;;;5093889;28;20501;-69
2021/08/22 04:29:16;;;;;;;11.93;8.02;;;17.10;99.90;;;;;;5093967;28;20496;-69
2021/08/22 04:31:41;;;;;;;9.95;8.05;;;17.10;99.90;;;;;;5093918;28;20028;-68
2021/08/22 04:34:07;;;;;;;14.27;8.82;;;17.10;99.90;;;;;;5093880;28;20095;-68
2021/08/22 04:36:33;;;;;;;13.50;9.90;;;17.10;99.90;;;;;;5093631;28;20031;-68
2021/08/22 04:38:59;;;;;;;15.25;9.45;;;17.10;99.90;;;;;;5093875;28;20480;-68
2021/08/22 04:41:24;;;;;;;13.60;9.80;;;17.10;99.90;;;;;;5092683;28;20413;-69
2021/08/22 04:43:52;;;;;;;11.48;9.60;;;17.20;99.90;;;;;;5093789;28;20032;-68
2021/08/22 04:46:18;;;;;;;15.25;10.00;;;17.20;99.90;;;;;;5093407;28;20020;-68
2021/08/22 04:48:43;;;;;;;15.68;11.45;;;17.30;99.90;;;;;;5093625;28;20024;-69
2021/08/22 04:51:09;;;;;;;16.98;12.38;;;17.30;99.90;;;;;;5097700;28;20440;-68
2021/08/22 04:53:34;;;;;;;20.08;12.73;;;17.40;99.90;;;;;;5097627;28;20028;-69
2021/08/22 04:56:00;;;;;;;23.65;14.65;;;17.40;99.90;;;;;;5097674;28;20095;-68
2021/08/22 04:58:26;;;;;;;20.38;14.43;;;17.40;99.90;;;;;;5097549;28;20112;-68
2021/08/22 05:00:51;;;;;;;24.15;15.52;;;17.40;99.90;;;;;;5097515;28;20032;-68
2021/08/22 05:03:17;;;;;;;27.45;16.60;;;17.40;99.90;;;;;;5097459;28;20050;-68
2021/08/22 05:05:42;;;;;;;27.05;18.50;;;17.40;99.90;;;;;;5095348;28;20024;-69
2021/08/22 05:08:08;;;;;;;30.48;20.05;;;17.50;99.90;;;;;;5097250;28;20028;-68
2021/08/22 05:10:35;;;;;;;30.25;20.00;;;17.50;99.90;;;;;;5097330;28;20060;-68
2021/08/22 05:13:01;;;;;;;27.40;18.58;;;17.50;99.90;;;;;;5097313;28;20016;-67
2021/08/22 05:15:26;;;;;;;32.25;20.52;;;17.50;99.90;;;;;;5097226;28;20035;-68
2021/08/22 05:17:52;;;;;;;30.00;19.58;;;17.60;99.90;;;;;;5097213;28;20082;-68
2021/08/22 05:20:19;;;;;;;29.60;19.95;;;17.60;99.90;;;;;;5097126;28;20039;-68
2021/08/22 05:22:45;;;;;;;31.70;20.08;;;17.70;99.90;;;;;;5096591;28;20016;-68
2021/08/22 05:25:10;;;;;;;29.35;20.17;;;17.70;99.90;;;;;;5097105;28;20090;-68
2021/08/22 05:27:36;;;;;;;26.75;20.58;;;17.70;99.90;;;;;;5096887;28;20036;-68
2021/08/22 05:30:02;;;;;;;31.23;21.45;;;17.70;99.90;;;;;;5095178;28;20023;-68
2021/08/22 05:32:28;;;;;;;34.47;23.75;;;17.70;99.90;;;;;;5096914;28;20047;-68
2021/08/22 05:34:53;;;;;;;31.95;23.05;;;17.70;99.90;;;;;;5095897;28;20413;-69
2021/08/22 05:37:19;;;;;;;35.80;24.27;;;17.70;99.90;;;;;;5095607;28;20055;-69
2021/08/22 05:39:44;;;;;;;33.83;24.52;;;17.70;99.90;;;;;;5096780;28;20099;-69
2021/08/22 05:42:10;;;;;;;35.67;24.45;;;17.70;99.90;;;;;;5096700;28;20027;-69
2021/08/22 05:44:36;;;;;;;34.13;23.67;;;17.70;99.90;;;;;;5096632;28;20035;-69
2021/08/22 05:47:01;;;;;;;41.15;24.85;;;17.70;99.90;;;;;;5096575;28;20024;-68
2021/08/22 05:49:27;;;;;;;36.90;26.60;;;17.70;99.90;;;;;;5096267;28;20020;-69
2021/08/22 05:51:52;;;;;;;44.80;28.02;;;17.70;99.90;;;;;;5096504;28;20031;-69
2021/08/22 05:54:18;;;;;;;38.75;27.23;;;17.70;99.90;;;;;;5094566;28;20020;-68
2021/08/22 05:56:43;;;;;;;40.47;27.73;;;17.70;99.90;;;;;;5096402;28;20035;-69
2021/08/22 05:59:09;;;;;;;43.03;28.52;;;17.70;99.90;;;;;;5095218;28;20055;-69
2021/08/22 06:01:35;;;;;;;43.95;28.55;;;17.70;99.90;;;;;;5095438;28;20035;-69
2021/08/22 06:04:01;;;;;;;43.47;28.45;;;17.70;99.90;;;;;;5096038;28;20024;-68
2021/08/22 06:06:27;;;;;;;47.25;32.22;;;17.70;99.90;;;;;;5095633;28;20394;-68
2021/08/22 06:08:52;;;;;;;46.88;30.75;;;17.70;99.90;;;;;;5094463;28;20077;-68
2021/08/22 06:11:18;;;;;;;56.78;36.50;;;17.70;99.90;;;;;;5095149;28;20020;-68
2021/08/22 06:13:44;;;;;;;52.85;36.17;;;17.70;99.90;;;;;;5095546;28;20024;-68
2021/08/22 06:16:09;;;;;;;64.60;40.22;;;17.70;99.90;;;;;;5095747;28;20025;-69
2021/08/22 06:18:35;;;;;;;58.05;38.13;;;17.80;99.90;;;;;;5096008;28;20031;-68
2021/08/22 06:21:00;;;;;;;63.55;39.78;;;17.90;99.90;;;;;;5077349;28;20024;-68
2021/08/22 06:23:26;;;;;;;65.63;41.60;;;18.00;99.90;;;;;;5095867;28;20032;-68
2021/08/22 06:25:52;;;;;;;71.65;44.95;;;18.10;99.90;;;;;;5095909;28;20372;-68
2021/08/22 06:28:17;;;;;;;74.78;47.55;;;18.20;99.90;;;;;;5095727;28;20039;-69
2021/08/22 06:30:43;;;;;;;73.47;46.25;;;18.20;99.90;;;;;;5094621;28;20052;-68
2021/08/22 06:33:10;;;;;;;75.00;48.85;;;18.20;99.90;;;;;;5095682;28;20027;-68
2021/08/22 06:35:36;;;;;;;81.72;51.65;;;18.20;99.90;;;;;;5094545;28;20051;-68
2021/08/22 06:38:01;;;;;;;81.25;50.67;;;18.20;99.90;;;;;;5094510;28;20449;-69
2021/08/22 06:40:27;;;;;;;86.90;52.92;;;18.20;99.90;;;;;;5095386;28;20477;-68
2021/08/22 06:42:53;;;;;;;80.45;52.90;;;18.20;99.90;;;;;;5094127;28;20032;-69
2021/08/22 06:45:19;;;;;;;81.22;52.60;;;18.10;99.90;;;;;;5093669;28;20039;-68
2021/08/22 06:47:46;;;;;;;91.32;55.28;;;18.10;99.90;;;;;;5094221;28;20016;-69
2021/08/22 06:50:13;;;;;;;95.95;57.08;;;18.10;99.90;;;;;;5093993;28;20022;-68
2021/08/22 06:52:38;;;;;;;89.90;55.13;;;18.10;99.90;;;;;;5077627;28;20451;-69
2021/08/22 06:55:04;;;;;;;94.35;56.55;;;18.10;99.90;;;;;;5095338;28;20103;-69
2021/08/22 06:57:30;;;;;;;90.38;55.38;;;18.10;99.90;;;;;;5095290;28;20034;-68
2021/08/22 06:59:55;;;;;;;87.10;55.53;;;18.10;99.90;;;;;;5094928;28;20028;-68
2021/08/22 07:02:21;;;;;;;93.45;56.08;;;18.10;99.90;;;;;;5094893;28;20384;-69
2021/08/22 07:04:47;;;;;;;86.15;56.05;;;18.20;99.90;;;;;;5095098;28;20434;-69
2021/08/22 07:07:12;;;;;;;89.68;56.55;;;18.20;99.90;;;;;;5094452;28;20052;-68
2021/08/22 07:09:38;;;;;;;88.78;56.75;;;18.30;99.90;;;;;;5094988;28;20030;-69
2021/08/22 07:12:04;;;;;;;90.25;55.45;;;18.30;99.90;;;;;;5094242;28;20040;-68
2021/08/22 07:14:29;;;;;;;88.00;55.70;;;18.40;99.90;;;;;;5094332;28;20415;-68
2021/08/22 07:16:55;;;;;;;84.03;53.10;;;18.60;99.90;;;;;;5094883;28;20049;-69
2021/08/22 07:19:20;;;;;;;85.68;55.25;;;18.60;99.90;;;;;;5094870;28;20024;-68
2021/08/22 07:21:46;;;;;;;84.28;55.40;;;18.70;99.90;;;;;;5094768;28;20028;-69
2021/08/22 07:24:11;;;;;;;80.72;51.42;;;18.70;99.90;;;;;;5093597;28;20097;-68
2021/08/22 07:26:37;;;;;;;75.95;49.85;;;18.60;99.90;;;;;;5094662;28;20038;-68
2021/08/22 07:29:03;;;;;;;66.80;45.72;;;18.70;99.90;;;;;;5094446;28;20052;-69
2021/08/22 07:31:30;;;;;;;64.82;43.42;;;18.70;99.90;;;;;;5094362;28;20022;-69
2021/08/22 07:33:55;;;;;;;61.10;42.85;;;18.60;99.90;;;;;;5092785;28;20070;-68
2021/08/22 07:36:21;;;;;;;53.80;37.95;;;18.70;99.90;;;;;;5092724;28;20044;-69
2021/08/22 07:38:46;;;;;;;47.65;36.35;;;18.90;99.90;;;;;;5094451;28;20373;-68
2021/08/22 07:41:12;;;;;;;49.88;36.15;;;19.10;99.90;;;;;;5094207;28;20039;-68
2021/08/22 07:43:37;;;;;;;44.70;33.20;;;19.10;99.90;;;;;;5093887;28;20489;-69
2021/08/22 07:46:03;;;;;;;45.30;32.65;;;19.20;99.90;;;;;;5094175;28;20028;-69
2021/08/22 07:48:29;;;;;;;44.53;33.28;;;19.20;99.90;;;;;;5092829;28;20028;-68
2021/08/22 07:50:54;;;;;;;45.67;32.40;;;19.20;99.90;;;;;;5092890;28;20020;-68
2021/08/22 07:53:20;;;;;;;43.15;32.33;;;19.10;99.90;;;;;;5094037;28;20031;-69
2021/08/22 07:55:45;;;;;;;42.05;31.30;;;19.20;99.90;;;;;;5092828;28;20032;-69
2021/08/22 07:58:11;;;;;;;42.92;30.77;;;19.20;99.90;;;;;;5094197;28;20123;-68
2021/08/22 08:00:36;;;;;;;44.42;32.00;;;19.20;99.90;;;;;;5093666;28;20073;-69
2021/08/22 08:03:02;;;;;;;43.50;30.85;;;19.30;99.90;;;;;;5092713;28;20035;-69
2021/08/22 08:05:27;;;;;;;41.08;29.70;;;19.50;99.90;;;;;;5093156;28;20028;-69
2021/08/22 08:07:53;;;;;;;37.55;27.23;;;19.60;99.90;;;;;;5093394;28;20148;-68
2021/08/22 08:10:19;;;;;;;36.00;26.23;;;20.60;99.90;;;;;;5093825;28;20020;-69
2021/08/22 08:12:45;;;;;;;32.80;24.42;;;21.70;99.90;;;;;;5092276;28;20020;-69
2021/08/22 08:15:11;;;;;;;28.80;23.45;;;21.90;99.90;;;;;;5093484;28;20496;-69
2021/08/22 08:17:37;;;;;;;33.78;24.08;;;22.50;99.90;;;;;;5094081;28;20031;-69
2021/08/22 08:20:04;;;;;;;29.58;22.98;;;22.10;99.90;;;;;;5093465;28;20028;-69
2021/08/22 08:22:30;;;;;;;27.48;22.58;;;22.00;99.90;;;;;;5093742;28;20374;-69
2021/08/22 08:24:57;;;;;;;29.65;22.73;;;22.20;99.90;;;;;;5098104;28;20038;-69
2021/08/22 08:27:23;;;;;;;30.40;22.73;;;22.60;99.90;;;;;;5098060;28;20058;-69
2021/08/22 08:29:50;;;;;;;26.77;21.10;;;23.00;99.90;;;;;;5097814;28;20047;-69
2021/08/22 08:32:15;;;;;;;27.92;22.80;;;22.70;99.90;;;;;;5097812;28;20030;-69
2021/08/22 08:34:41;;;;;;;30.20;23.42;;;21.90;99.90;;;;;;5097430;28;20103;-68
2021/08/22 08:37:07;;;;;;;29.45;22.60;;;21.20;99.90;;;;;;5098047;28;20103;-69
2021/08/22 08:39:32;;;;;;;28.65;22.02;;;21.10;99.90;;;;;;5097397;28;20032;-69
2021/08/22 08:42:23;;;;;;;25.50;20.95;;;21.40;99.90;;;;;;5096445;28;20052;-69
2021/08/22 08:44:51;;;;;;;25.65;20.58;;;21.60;99.90;;;;;;5097124;28;20044;-69
2021/08/22 08:47:17;;;;;;;24.48;19.25;;;21.20;99.90;;;;;;5095879;28;20388;-69
2021/08/22 08:50:20;;;;;;;24.55;19.17;;;21.20;99.90;;;;;;5097765;28;20465;-69
2021/08/22 08:53:06;;;;;;;18.15;16.20;;;22.00;99.90;;;;;;5097096;28;20031;-69
2021/08/22 08:55:36;;;;;;;18.15;15.77;;;21.70;99.90;;;;;;5097537;28;20016;-68
2021/08/22 08:58:01;;;;;;;18.80;16.27;;;21.30;99.90;;;;;;5097050;28;20366;-69
2021/08/22 09:00:29;;;;;;;18.13;16.08;;;21.30;99.90;;;;;;5096089;28;20035;-69
2021/08/22 09:02:56;;;;;;;20.13;17.30;;;21.50;99.90;;;;;;5096196;28;20039;-69
2021/08/22 09:05:50;;;;;;;18.10;16.15;;;21.40;99.90;;;;;;5097463;28;20027;-69
2021/08/22 09:11:43;;;;;;;24.95;19.55;;;21.30;99.90;;;;;;5112176;27;20637;-69
2021/08/22 09:14:48;;;;;;;24.40;20.65;;;21.90;99.90;;;;;;5109934;28;20370;-71
2021/08/22 09:17:54;;;;;;;21.20;18.95;;;21.70;99.90;;;;;;5111189;27;20028;-69
2021/08/22 09:20:59;;;;;;;21.30;17.35;;;22.80;99.90;;;;;;5111251;27;20020;-69
2021/08/22 09:24:00;;;;;;;18.98;16.95;;;22.70;99.90;;;;;;5111086;27;20024;-67
2021/08/22 09:29:57;;;;;;;19.63;17.52;;;23.10;99.90;;;;;;5091791;28;20859;-69
2021/08/22 09:33:02;;;;;;;21.63;18.08;;;22.10;99.90;;;;;;5089568;28;20031;-69
2021/08/22 09:36:08;;;;;;;21.23;18.35;;;22.10;99.90;;;;;;5090780;28;20103;-68
2021/08/22 09:39:13;;;;;;;21.40;18.15;;;22.60;99.90;;;;;;5090659;28;20486;-69
2021/08/22 09:42:18;;;;;;;20.30;18.20;;;22.40;99.90;;;;;;5090597;28;20020;-69
2021/08/22 09:45:06;;;;;;;20.42;18.27;;;22.60;99.90;;;;;;5090515;28;20100;-69
2021/08/22 09:48:03;;;;;;;18.35;16.23;;;23.00;99.90;;;;;;5090610;28;20028;-69
2021/08/22 09:51:09;;;;;;;14.82;13.38;;;23.60;99.90;;;;;;5090125;28;20027;-69
2021/08/22 09:54:15;;;;;;;16.20;14.60;;;24.10;99.90;;;;;;5090438;28;20020;-69
2021/08/22 09:57:19;;;;;;;16.58;14.43;;;23.10;99.90;;;;;;5090353;28;20041;-68
2021/08/22 10:00:04;;;;;;;17.55;15.43;;;22.40;99.90;;;;;;5090393;28;20028;-69
2021/08/22 10:02:43;;;;;;;20.70;14.52;;;22.30;99.90;;;;;;5089484;28;20112;-68
2021/08/22 10:05:49;;;;;;;15.57;13.98;;;22.50;99.90;;;;;;5089718;28;20032;-68
2021/08/22 10:08:38;;;;;;;15.00;13.60;;;22.70;99.90;;;;;;5090053;28;20363;-69
2021/08/22 10:11:08;;;;;;;16.13;14.57;;;22.40;99.90;;;;;;5088841;28;20025;-69
2021/08/22 10:13:36;;;;;;;16.50;14.52;;;22.00;99.90;;;;;;5090463;28;20022;-68
2021/08/22 10:16:02;;;;;;;16.33;14.40;;;21.80;99.90;;;;;;5088893;28;20056;-68
2021/08/22 10:18:28;;;;;;;14.40;13.00;;;21.90;99.90;;;;;;5072046;28;20414;-69
2021/08/22 10:21:02;;;;;;;13.60;12.25;;;22.30;99.90;;;;;;5090616;28;20424;-69
2021/08/22 10:29:27;;;;;;;11.25;10.15;;;23.60;99.90;;;;;;5071545;28;20832;-68
2021/08/22 10:34:30;;;;;;;14.10;12.48;;;24.60;99.90;;;;;;5091826;28;20432;-67
2021/08/22 10:36:57;;;;;;;15.70;12.25;;;24.30;99.90;;;;;;5091476;28;20480;-68
2021/08/22 10:42:01;;;;;;;13.50;12.27;;;24.10;99.90;;;;;;5071577;28;20180;-68
2021/08/22 10:47:22;;;;;;;16.60;14.90;;;22.80;99.90;;;;;;5071561;28;20754;-69
2021/08/22 10:52:31;;;;;;;14.07;12.68;;;22.20;99.90;;;;;;5112182;27;20404;-69
2021/08/22 10:57:55;;;;;;;13.85;11.48;;;22.00;99.90;;;;;;5112176;27;20288;-68
2021/08/22 11:00:25;;;;;;;12.75;10.90;;;22.00;99.90;;;;;;5111838;28;20509;-68
2021/08/22 11:02:55;;;;;;;11.70;9.20;;;22.10;99.90;;;;;;5111805;28;20377;-68
2021/08/22 11:05:23;;;;;;;8.90;7.97;;;22.00;99.90;;;;;;5110341;28;20016;-68
2021/08/22 11:07:52;;;;;;;7.68;6.88;;;22.00;99.90;;;;;;5111728;28;20019;-68
2021/08/22 11:10:19;;;;;;;6.88;6.25;;;22.30;99.90;;;;;;5111146;28;20019;-68
2021/08/22 11:12:45;;;;;;;7.68;6.40;;;22.70;99.90;;;;;;5109729;28;20031;-68
2021/08/22 11:15:28;;;;;;;7.68;6.30;;;22.50;99.90;;;;;;5111045;28;20028;-68
2021/08/22 11:17:57;;;;;;;9.03;6.60;;;22.60;99.90;;;;;;5111197;28;20024;-68
2021/08/22 11:20:27;;;;;;;8.43;6.10;;;22.10;99.90;;;;;;5111190;28;20299;-68
2021/08/22 11:23:16;;;;;;;8.80;5.95;;;22.00;99.90;;;;;;5111370;28;20073;-68
2021/08/22 11:25:42;;;;;;;7.53;5.70;;;21.90;99.90;;;;;;5111315;28;20016;-68
2021/08/22 11:28:12;;;;;;;8.57;5.95;;;21.90;99.90;;;;;;5111040;28;20381;-68
2021/08/22 11:30:39;;;;;;;7.47;5.90;;;22.00;99.90;;;;;;5092456;28;20154;-68
2021/08/22 11:33:05;;;;;;;7.38;6.00;;;22.10;99.90;;;;;;5111178;28;20062;-68
2021/08/22 11:35:35;;;;;;;10.05;6.70;;;21.90;99.90;;;;;;5109186;28;20370;-68
2021/08/22 11:38:01;;;;;;;6.55;5.40;;;22.10;99.90;;;;;;5111089;28;20016;-68
2021/08/22 11:40:28;;;;;;;7.65;5.97;;;22.00;99.90;;;;;;5111090;28;20099;-68
2021/08/22 11:42:56;;;;;;;6.18;5.57;;;22.00;99.90;;;;;;5111054;28;20020;-68
2021/08/22 11:45:24;;;;;;;10.95;6.90;;;22.10;99.90;;;;;;5109175;28;20027;-68
2021/08/22 11:47:51;;;;;;;8.82;6.80;;;21.90;99.90;;;;;;5110961;28;20024;-68
2021/08/22 11:50:21;;;;;;;8.88;6.13;;;21.70;99.90;;;;;;5110628;28;20030;-68
2021/08/22 11:52:49;;;;;;;9.30;6.78;;;21.80;99.90;;;;;;5109407;28;20419;-68
2021/08/22 11:55:18;;;;;;;7.85;6.80;;;21.70;99.90;;;;;;5110822;28;20047;-68
2021/08/22 11:57:43;;;;;;;9.68;6.97;;;21.80;99.90;;;;;;5110034;28;20047;-68
2021/08/22 12:00:11;;;;;;;9.95;7.03;;;21.70;99.90;;;;;;5110705;28;20377;-68
2021/08/22 12:02:37;;;;;;;9.68;6.75;;;21.70;99.90;;;;;;5110660;28;20031;-68
2021/08/22 12:05:21;;;;;;;7.30;6.60;;;21.70;99.90;;;;;;5110578;28;20046;-68
2021/08/22 12:07:49;;;;;;;8.90;7.05;;;21.80;99.90;;;;;;5103901;28;20035;-68
2021/08/22 12:10:24;;;;;;;7.40;6.57;;;21.70;99.90;;;;;;5096948;28;20035;-68
2021/08/22 12:12:50;;;;;;;8.88;7.13;;;21.60;99.90;;;;;;5096893;28;20137;-68
2021/08/22 12:15:16;;;;;;;9.75;7.80;;;21.60;99.90;;;;;;5096878;28;20086;-68
2021/08/22 12:17:42;;;;;;;12.20;9.10;;;21.70;99.90;;;;;;5078077;28;20036;-68
2021/08/22 12:20:19;;;;;;;8.23;7.10;;;21.90;99.90;;;;;;5095782;28;20020;-68
2021/08/22 12:23:01;;;;;;;8.50;7.25;;;22.20;99.90;;;;;;5096733;28;20074;-68
2021/08/22 12:25:26;;;;;;;10.90;8.63;;;22.30;99.90;;;;;;5096048;28;20028;-68
2021/08/22 12:27:52;;;;;;;9.38;7.75;;;22.50;99.90;;;;;;5094805;28;20028;-68
2021/08/22 12:30:18;;;;;;;7.80;7.10;;;22.90;99.90;;;;;;5095128;28;20024;-68
2021/08/22 12:32:43;;;;;;;8.02;6.93;;;23.00;99.90;;;;;;5096004;28;20032;-69
2021/08/22 12:35:09;;;;;;;8.10;6.40;;;22.90;99.90;;;;;;5096190;28;20073;-68
2021/08/22 12:37:35;;;;;;;7.75;6.38;;;23.50;99.90;;;;;;5095588;28;20026;-68
2021/08/22 12:40:05;;;;;;;7.00;6.15;;;23.30;99.90;;;;;;5096159;28;20529;-68
2021/08/22 12:42:31;;;;;;;6.88;5.93;;;22.80;99.90;;;;;;5094759;28;20032;-68
2021/08/22 12:44:57;;;;;;;7.32;6.47;;;22.70;99.90;;;;;;5094807;28;20094;-68
2021/08/22 12:47:23;;;;;;;7.18;5.65;;;22.70;99.90;;;;;;5095922;28;20024;-68
2021/08/22 12:49:49;;;;;;;6.40;5.80;;;22.50;99.90;;;;;;5095891;28;20035;-68
2021/08/22 12:52:16;;;;;;;8.70;6.47;;;22.30;99.90;;;;;;5096163;28;20028;-68
2021/08/22 12:54:42;;;;;;;7.20;5.80;;;22.30;99.90;;;;;;5094655;28;20095;-68
2021/08/22 12:57:08;;;;;;;9.50;5.63;;;22.50;99.90;;;;;;5077047;28;20066;-68
2021/08/22 12:59:33;;;;;;;5.97;4.85;;;23.20;99.90;;;;;;5094193;28;20020;-68
2021/08/22 13:02:00;;;;;;;7.05;5.18;;;23.70;99.90;;;;;;5095640;28;20024;-68
2021/08/22 13:04:26;;;;;;;5.25;3.80;;;24.00;99.90;;;;;;5095837;28;20016;-68
2021/08/22 13:06:55;;;;;;;5.07;3.72;;;23.90;99.90;;;;;;5094228;28;20028;-68